sensor_id;sensor_type;location;lat;lon;timestamp;P1;durP1;ratioP1;P2;durP2;ratioP2
56039;SDS011;43937;41.366;2.072;2024-01-30T00:01:43;27.33;;;11.13;;
56039;SDS011;43937;41.366;2.072;2024-01-30T00:04:09;26.95;;;12.30;;
56039;SDS011;43937;41.366;2.072;2024-01-30T00:06:34;27.10;;;12.83;;
56039;SDS011;43937;41.366;2.072;2024-01-30T00:09:00;26.13;;;12.07;;
56039;SDS011;43937;41.366;2.072;2024-01-30T00:11:25;24.90;;;12.00;;
56039;SDS011;43937;41.366;2.072;2024-01-30T00:13:53;29.33;;;12.57;;
56039;SDS011;43937;41.366;2.072;2024-01-30T00:16:22;27.43;;;12.60;;
56039;SDS011;43937;41.366;2.072;2024-01-30T00:18:52;29.10;;;12.57;;
56039;SDS011;43937;41.366;2.072;2024-01-30T00:21:18;27.17;;;12.27;;
56039;SDS011;43937;41.366;2.072;2024-01-30T00:23:44;21.48;;;10.65;;
56039;SDS011;43937;41.366;2.072;2024-01-30T00:26:09;19.83;;;10.10;;
56039;SDS011;43937;41.366;2.072;2024-01-30T00:28:36;19.00;;;9.80;;
56039;SDS011;43937;41.366;2.072;2024-01-30T00:31:04;23.25;;;10.13;;
56039;SDS011;43937;41.366;2.072;2024-01-30T00:33:30;17.47;;;8.73;;
56039;SDS011;43937;41.366;2.072;2024-01-30T00:35:55;23.47;;;10.53;;
56039;SDS011;43937;41.366;2.072;2024-01-30T00:38:21;25.75;;;10.40;;
56039;SDS011;43937;41.366;2.072;2024-01-30T00:40:47;26.35;;;11.40;;
56039;SDS011;43937;41.366;2.072;2024-01-30T00:43:13;26.50;;;11.60;;
56039;SDS011;43937;41.366;2.072;2024-01-30T00:45:38;28.63;;;12.27;;
56039;SDS011;43937;41.366;2.072;2024-01-30T00:48:04;22.97;;;11.67;;
56039;SDS011;43937;41.366;2.072;2024-01-30T00:50:30;27.52;;;12.73;;
56039;SDS011;43937;41.366;2.072;2024-01-30T00:52:55;26.60;;;12.38;;
56039;SDS011;43937;41.366;2.072;2024-01-30T00:55:21;21.73;;;11.30;;
56039;SDS011;43937;41.366;2.072;2024-01-30T00:57:46;30.50;;;12.20;;
56039;SDS011;43937;41.366;2.072;2024-01-30T01:00:12;25.33;;;11.80;;
56039;SDS011;43937;41.366;2.072;2024-01-30T01:02:41;31.10;;;12.27;;
56039;SDS011;43937;41.366;2.072;2024-01-30T01:05:06;29.20;;;12.07;;
56039;SDS011;43937;41.366;2.072;2024-01-30T01:07:32;20.48;;;10.63;;
56039;SDS011;43937;41.366;2.072;2024-01-30T01:09:57;21.07;;;10.63;;
56039;SDS011;43937;41.366;2.072;2024-01-30T01:12:23;23.13;;;11.80;;
56039;SDS011;43937;41.366;2.072;2024-01-30T01:14:48;23.73;;;11.53;;
56039;SDS011;43937;41.366;2.072;2024-01-30T01:17:13;17.80;;;10.70;;
56039;SDS011;43937;41.366;2.072;2024-01-30T01:19:39;22.90;;;11.80;;
56039;SDS011;43937;41.366;2.072;2024-01-30T01:22:04;20.38;;;10.68;;
56039;SDS011;43937;41.366;2.072;2024-01-30T01:24:31;30.93;;;12.10;;
56039;SDS011;43937;41.366;2.072;2024-01-30T01:26:57;30.17;;;12.55;;
56039;SDS011;43937;41.366;2.072;2024-01-30T01:29:23;26.65;;;12.07;;
56039;SDS011;43937;41.366;2.072;2024-01-30T01:31:54;25.03;;;12.23;;
56039;SDS011;43937;41.366;2.072;2024-01-30T01:34:22;29.45;;;12.82;;
56039;SDS011;43937;41.366;2.072;2024-01-30T01:36:49;25.48;;;12.80;;
56039;SDS011;43937;41.366;2.072;2024-01-30T01:39:14;24.20;;;12.40;;
56039;SDS011;43937;41.366;2.072;2024-01-30T01:41:40;28.33;;;13.03;;
56039;SDS011;43937;41.366;2.072;2024-01-30T01:44:06;28.42;;;13.13;;
56039;SDS011;43937;41.366;2.072;2024-01-30T01:46:32;27.02;;;12.60;;
56039;SDS011;43937;41.366;2.072;2024-01-30T01:48:58;31.05;;;13.25;;
56039;SDS011;43937;41.366;2.072;2024-01-30T01:51:26;31.35;;;13.13;;
56039;SDS011;43937;41.366;2.072;2024-01-30T01:53:56;25.58;;;12.23;;
56039;SDS011;43937;41.366;2.072;2024-01-30T01:56:23;23.33;;;11.90;;
56039;SDS011;43937;41.366;2.072;2024-01-30T01:58:49;26.20;;;12.40;;
56039;SDS011;43937;41.366;2.072;2024-01-30T02:01:16;23.42;;;12.05;;
56039;SDS011;43937;41.366;2.072;2024-01-30T02:03:45;25.20;;;12.52;;
56039;SDS011;43937;41.366;2.072;2024-01-30T02:06:11;29.37;;;13.00;;
56039;SDS011;43937;41.366;2.072;2024-01-30T02:08:38;28.60;;;11.80;;
56039;SDS011;43937;41.366;2.072;2024-01-30T02:11:04;22.85;;;11.93;;
56039;SDS011;43937;41.366;2.072;2024-01-30T02:13:30;28.33;;;11.90;;
56039;SDS011;43937;41.366;2.072;2024-01-30T02:15:55;26.67;;;11.82;;
56039;SDS011;43937;41.366;2.072;2024-01-30T02:18:22;27.25;;;11.82;;
56039;SDS011;43937;41.366;2.072;2024-01-30T02:20:47;25.92;;;11.48;;
56039;SDS011;43937;41.366;2.072;2024-01-30T02:23:14;27.57;;;11.20;;
56039;SDS011;43937;41.366;2.072;2024-01-30T02:25:41;20.92;;;9.85;;
56039;SDS011;43937;41.366;2.072;2024-01-30T02:28:11;29.83;;;10.30;;
56039;SDS011;43937;41.366;2.072;2024-01-30T02:30:37;24.05;;;9.63;;
56039;SDS011;43937;41.366;2.072;2024-01-30T02:33:04;20.70;;;9.63;;
56039;SDS011;43937;41.366;2.072;2024-01-30T02:35:29;25.00;;;10.25;;
56039;SDS011;43937;41.366;2.072;2024-01-30T02:37:55;27.03;;;9.37;;
56039;SDS011;43937;41.366;2.072;2024-01-30T02:40:20;21.13;;;8.47;;
56039;SDS011;43937;41.366;2.072;2024-01-30T02:42:46;19.93;;;8.20;;
56039;SDS011;43937;41.366;2.072;2024-01-30T02:45:11;22.67;;;8.48;;
56039;SDS011;43937;41.366;2.072;2024-01-30T02:47:38;23.38;;;8.90;;
56039;SDS011;43937;41.366;2.072;2024-01-30T02:50:04;22.02;;;8.63;;
56039;SDS011;43937;41.366;2.072;2024-01-30T02:52:30;21.73;;;9.10;;
56039;SDS011;43937;41.366;2.072;2024-01-30T02:54:55;19.85;;;8.32;;
56039;SDS011;43937;41.366;2.072;2024-01-30T02:57:21;17.90;;;7.60;;
56039;SDS011;43937;41.366;2.072;2024-01-30T02:59:46;21.60;;;7.40;;
56039;SDS011;43937;41.366;2.072;2024-01-30T03:02:12;21.80;;;7.47;;
56039;SDS011;43937;41.366;2.072;2024-01-30T03:04:37;24.27;;;7.97;;
56039;SDS011;43937;41.366;2.072;2024-01-30T03:07:05;25.35;;;7.85;;
56039;SDS011;43937;41.366;2.072;2024-01-30T03:09:31;27.40;;;7.70;;
56039;SDS011;43937;41.366;2.072;2024-01-30T03:11:56;22.07;;;7.33;;
56039;SDS011;43937;41.366;2.072;2024-01-30T03:14:21;25.67;;;7.60;;
56039;SDS011;43937;41.366;2.072;2024-01-30T03:16:47;19.97;;;6.80;;
56039;SDS011;43937;41.366;2.072;2024-01-30T03:19:12;25.83;;;7.60;;
56039;SDS011;43937;41.366;2.072;2024-01-30T03:21:38;24.33;;;7.10;;
56039;SDS011;43937;41.366;2.072;2024-01-30T03:24:03;24.70;;;7.07;;
56039;SDS011;43937;41.366;2.072;2024-01-30T03:26:29;24.67;;;7.70;;
56039;SDS011;43937;41.366;2.072;2024-01-30T03:28:54;22.70;;;7.80;;
56039;SDS011;43937;41.366;2.072;2024-01-30T03:31:20;22.08;;;7.30;;
56039;SDS011;43937;41.366;2.072;2024-01-30T03:33:45;22.97;;;7.77;;
56039;SDS011;43937;41.366;2.072;2024-01-30T03:36:11;27.10;;;8.23;;
56039;SDS011;43937;41.366;2.072;2024-01-30T03:38:36;23.75;;;7.85;;
56039;SDS011;43937;41.366;2.072;2024-01-30T03:41:02;25.67;;;8.27;;
56039;SDS011;43937;41.366;2.072;2024-01-30T03:43:28;22.90;;;7.35;;
56039;SDS011;43937;41.366;2.072;2024-01-30T03:45:53;16.67;;;7.15;;
56039;SDS011;43937;41.366;2.072;2024-01-30T03:48:19;19.73;;;7.27;;
56039;SDS011;43937;41.366;2.072;2024-01-30T03:50:46;20.35;;;7.32;;
56039;SDS011;43937;41.366;2.072;2024-01-30T03:53:11;24.00;;;7.90;;
56039;SDS011;43937;41.366;2.072;2024-01-30T03:55:37;19.07;;;6.53;;
56039;SDS011;43937;41.366;2.072;2024-01-30T03:58:02;23.13;;;7.25;;
56039;SDS011;43937;41.366;2.072;2024-01-30T04:00:28;20.63;;;6.90;;
56039;SDS011;43937;41.366;2.072;2024-01-30T04:02:53;24.83;;;7.10;;
56039;SDS011;43937;41.366;2.072;2024-01-30T04:05:18;25.13;;;7.37;;
56039;SDS011;43937;41.366;2.072;2024-01-30T04:07:44;23.48;;;7.53;;
56039;SDS011;43937;41.366;2.072;2024-01-30T04:10:09;21.97;;;7.30;;
56039;SDS011;43937;41.366;2.072;2024-01-30T04:12:35;25.73;;;8.00;;
56039;SDS011;43937;41.366;2.072;2024-01-30T04:15:01;25.55;;;7.63;;
56039;SDS011;43937;41.366;2.072;2024-01-30T04:17:27;23.35;;;7.55;;
56039;SDS011;43937;41.366;2.072;2024-01-30T04:19:54;23.40;;;6.63;;
56039;SDS011;43937;41.366;2.072;2024-01-30T04:22:19;21.13;;;7.25;;
56039;SDS011;43937;41.366;2.072;2024-01-30T04:24:45;27.17;;;6.73;;
56039;SDS011;43937;41.366;2.072;2024-01-30T04:27:10;24.83;;;7.43;;
56039;SDS011;43937;41.366;2.072;2024-01-30T04:29:36;20.13;;;6.50;;
56039;SDS011;43937;41.366;2.072;2024-01-30T04:32:01;15.67;;;5.83;;
56039;SDS011;43937;41.366;2.072;2024-01-30T04:34:27;22.40;;;6.87;;
56039;SDS011;43937;41.366;2.072;2024-01-30T04:36:52;19.92;;;6.40;;
56039;SDS011;43937;41.366;2.072;2024-01-30T04:39:17;28.07;;;8.37;;
56039;SDS011;43937;41.366;2.072;2024-01-30T04:41:43;28.30;;;8.40;;
56039;SDS011;43937;41.366;2.072;2024-01-30T04:44:08;23.92;;;7.70;;
56039;SDS011;43937;41.366;2.072;2024-01-30T04:46:34;24.30;;;7.33;;
56039;SDS011;43937;41.366;2.072;2024-01-30T04:48:59;27.83;;;7.90;;
56039;SDS011;43937;41.366;2.072;2024-01-30T04:51:25;26.60;;;7.55;;
56039;SDS011;43937;41.366;2.072;2024-01-30T04:53:50;26.47;;;7.97;;
56039;SDS011;43937;41.366;2.072;2024-01-30T04:56:16;28.60;;;7.60;;
56039;SDS011;43937;41.366;2.072;2024-01-30T04:58:41;22.57;;;7.37;;
56039;SDS011;43937;41.366;2.072;2024-01-30T05:01:06;27.42;;;7.95;;
56039;SDS011;43937;41.366;2.072;2024-01-30T05:03:35;27.70;;;8.27;;
56039;SDS011;43937;41.366;2.072;2024-01-30T05:06:00;27.38;;;8.02;;
56039;SDS011;43937;41.366;2.072;2024-01-30T05:08:26;21.90;;;7.28;;
56039;SDS011;43937;41.366;2.072;2024-01-30T05:10:51;22.65;;;7.40;;
56039;SDS011;43937;41.366;2.072;2024-01-30T05:13:17;23.87;;;7.70;;
56039;SDS011;43937;41.366;2.072;2024-01-30T05:15:42;26.07;;;7.70;;
56039;SDS011;43937;41.366;2.072;2024-01-30T05:18:08;26.52;;;7.47;;
56039;SDS011;43937;41.366;2.072;2024-01-30T05:20:33;22.57;;;6.87;;
56039;SDS011;43937;41.366;2.072;2024-01-30T05:22:58;21.83;;;6.87;;
56039;SDS011;43937;41.366;2.072;2024-01-30T05:25:24;22.33;;;7.05;;
56039;SDS011;43937;41.366;2.072;2024-01-30T05:27:49;23.23;;;7.10;;
56039;SDS011;43937;41.366;2.072;2024-01-30T05:30:15;21.70;;;7.00;;
56039;SDS011;43937;41.366;2.072;2024-01-30T05:32:40;22.43;;;7.00;;
56039;SDS011;43937;41.366;2.072;2024-01-30T05:35:06;17.73;;;6.53;;
56039;SDS011;43937;41.366;2.072;2024-01-30T05:37:33;23.15;;;7.15;;
56039;SDS011;43937;41.366;2.072;2024-01-30T05:39:58;22.13;;;7.72;;
56039;SDS011;43937;41.366;2.072;2024-01-30T05:42:24;24.73;;;7.90;;
56039;SDS011;43937;41.366;2.072;2024-01-30T05:44:50;18.87;;;6.90;;
56039;SDS011;43937;41.366;2.072;2024-01-30T05:47:15;27.50;;;7.50;;
56039;SDS011;43937;41.366;2.072;2024-01-30T05:49:41;26.43;;;7.77;;
56039;SDS011;43937;41.366;2.072;2024-01-30T05:52:07;21.98;;;7.10;;
56039;SDS011;43937;41.366;2.072;2024-01-30T05:54:32;21.50;;;8.02;;
56039;SDS011;43937;41.366;2.072;2024-01-30T05:56:58;26.50;;;7.60;;
56039;SDS011;43937;41.366;2.072;2024-01-30T05:59:24;21.23;;;7.90;;
56039;SDS011;43937;41.366;2.072;2024-01-30T06:01:49;20.27;;;7.97;;
56039;SDS011;43937;41.366;2.072;2024-01-30T06:04:15;23.40;;;8.05;;
56039;SDS011;43937;41.366;2.072;2024-01-30T06:06:41;22.57;;;7.50;;
56039;SDS011;43937;41.366;2.072;2024-01-30T06:09:06;22.73;;;8.20;;
56039;SDS011;43937;41.366;2.072;2024-01-30T06:11:34;27.20;;;11.20;;
56039;SDS011;43937;41.366;2.072;2024-01-30T06:14:00;27.48;;;10.48;;
56039;SDS011;43937;41.366;2.072;2024-01-30T06:16:25;25.77;;;9.30;;
56039;SDS011;43937;41.366;2.072;2024-01-30T06:18:54;25.23;;;9.63;;
56039;SDS011;43937;41.366;2.072;2024-01-30T06:21:20;26.40;;;9.00;;
56039;SDS011;43937;41.366;2.072;2024-01-30T06:23:46;26.10;;;9.43;;
56039;SDS011;43937;41.366;2.072;2024-01-30T06:26:11;29.77;;;9.50;;
56039;SDS011;43937;41.366;2.072;2024-01-30T06:28:36;25.27;;;10.73;;
56039;SDS011;43937;41.366;2.072;2024-01-30T06:31:02;23.43;;;9.50;;
56039;SDS011;43937;41.366;2.072;2024-01-30T06:33:28;20.57;;;8.90;;
56039;SDS011;43937;41.366;2.072;2024-01-30T06:35:53;24.20;;;9.27;;
56039;SDS011;43937;41.366;2.072;2024-01-30T06:38:18;20.70;;;9.98;;
56039;SDS011;43937;41.366;2.072;2024-01-30T06:40:44;22.00;;;9.70;;
56039;SDS011;43937;41.366;2.072;2024-01-30T06:43:09;27.80;;;10.93;;
56039;SDS011;43937;41.366;2.072;2024-01-30T06:45:35;19.00;;;10.18;;
56039;SDS011;43937;41.366;2.072;2024-01-30T06:48:00;23.33;;;11.25;;
56039;SDS011;43937;41.366;2.072;2024-01-30T06:50:26;25.40;;;12.50;;
56039;SDS011;43937;41.366;2.072;2024-01-30T06:52:51;24.90;;;12.13;;
56039;SDS011;43937;41.366;2.072;2024-01-30T06:55:17;26.90;;;13.00;;
56039;SDS011;43937;41.366;2.072;2024-01-30T06:57:43;45.67;;;23.67;;
56039;SDS011;43937;41.366;2.072;2024-01-30T07:00:09;32.03;;;15.93;;
56039;SDS011;43937;41.366;2.072;2024-01-30T07:02:35;32.58;;;16.63;;
56039;SDS011;43937;41.366;2.072;2024-01-30T07:05:01;36.88;;;17.73;;
56039;SDS011;43937;41.366;2.072;2024-01-30T07:07:27;38.00;;;17.30;;
56039;SDS011;43937;41.366;2.072;2024-01-30T07:09:53;36.55;;;18.80;;
56039;SDS011;43937;41.366;2.072;2024-01-30T07:12:22;37.30;;;19.13;;
56039;SDS011;43937;41.366;2.072;2024-01-30T07:14:49;45.13;;;20.30;;
56039;SDS011;43937;41.366;2.072;2024-01-30T07:17:15;40.67;;;20.33;;
56039;SDS011;43937;41.366;2.072;2024-01-30T07:19:41;45.17;;;21.57;;
56039;SDS011;43937;41.366;2.072;2024-01-30T07:22:06;38.80;;;20.93;;
56039;SDS011;43937;41.366;2.072;2024-01-30T07:24:32;38.50;;;20.27;;
56039;SDS011;43937;41.366;2.072;2024-01-30T07:26:57;38.30;;;20.00;;
56039;SDS011;43937;41.366;2.072;2024-01-30T07:29:22;39.33;;;19.53;;
56039;SDS011;43937;41.366;2.072;2024-01-30T07:31:48;36.53;;;18.70;;
56039;SDS011;43937;41.366;2.072;2024-01-30T07:34:13;39.60;;;19.55;;
56039;SDS011;43937;41.366;2.072;2024-01-30T07:36:39;36.60;;;18.63;;
56039;SDS011;43937;41.366;2.072;2024-01-30T07:39:04;40.77;;;19.47;;
56039;SDS011;43937;41.366;2.072;2024-01-30T07:41:30;45.13;;;19.30;;
56039;SDS011;43937;41.366;2.072;2024-01-30T07:43:55;43.33;;;18.97;;
56039;SDS011;43937;41.366;2.072;2024-01-30T07:46:21;43.87;;;19.27;;
56039;SDS011;43937;41.366;2.072;2024-01-30T07:48:46;39.60;;;18.13;;
56039;SDS011;43937;41.366;2.072;2024-01-30T07:51:12;40.75;;;17.88;;
56039;SDS011;43937;41.366;2.072;2024-01-30T07:53:37;41.17;;;18.13;;
56039;SDS011;43937;41.366;2.072;2024-01-30T07:56:03;42.23;;;18.40;;
56039;SDS011;43937;41.366;2.072;2024-01-30T07:58:28;45.75;;;19.20;;
56039;SDS011;43937;41.366;2.072;2024-01-30T08:00:54;40.53;;;18.93;;
56039;SDS011;43937;41.366;2.072;2024-01-30T08:03:21;38.25;;;18.58;;
56039;SDS011;43937;41.366;2.072;2024-01-30T08:05:47;45.17;;;19.13;;
56039;SDS011;43937;41.366;2.072;2024-01-30T08:08:13;41.50;;;18.80;;
56039;SDS011;43937;41.366;2.072;2024-01-30T08:10:38;40.60;;;17.87;;
56039;SDS011;43937;41.366;2.072;2024-01-30T08:13:04;39.03;;;17.55;;
56039;SDS011;43937;41.366;2.072;2024-01-30T08:15:29;40.23;;;17.70;;
56039;SDS011;43937;41.366;2.072;2024-01-30T08:17:54;41.20;;;18.77;;
56039;SDS011;43937;41.366;2.072;2024-01-30T08:20:23;51.50;;;21.30;;
56039;SDS011;43937;41.366;2.072;2024-01-30T08:22:49;35.42;;;17.27;;
56039;SDS011;43937;41.366;2.072;2024-01-30T08:25:14;36.45;;;17.02;;
56039;SDS011;43937;41.366;2.072;2024-01-30T08:27:40;35.45;;;16.98;;
56039;SDS011;43937;41.366;2.072;2024-01-30T08:30:06;33.60;;;16.20;;
56039;SDS011;43937;41.366;2.072;2024-01-30T08:32:32;34.42;;;16.00;;
56039;SDS011;43937;41.366;2.072;2024-01-30T08:34:58;33.08;;;15.27;;
56039;SDS011;43937;41.366;2.072;2024-01-30T08:37:24;38.00;;;15.50;;
56039;SDS011;43937;41.366;2.072;2024-01-30T08:39:49;31.63;;;15.05;;
56039;SDS011;43937;41.366;2.072;2024-01-30T08:42:14;36.67;;;16.30;;
56039;SDS011;43937;41.366;2.072;2024-01-30T08:44:40;32.35;;;15.77;;
56039;SDS011;43937;41.366;2.072;2024-01-30T08:47:06;30.17;;;13.63;;
56039;SDS011;43937;41.366;2.072;2024-01-30T08:49:31;34.03;;;14.03;;
56039;SDS011;43937;41.366;2.072;2024-01-30T08:51:57;32.30;;;13.47;;
56039;SDS011;43937;41.366;2.072;2024-01-30T08:54:23;36.73;;;14.60;;
56039;SDS011;43937;41.366;2.072;2024-01-30T08:56:49;36.72;;;15.88;;
56039;SDS011;43937;41.366;2.072;2024-01-30T08:59:14;34.13;;;15.48;;
56039;SDS011;43937;41.366;2.072;2024-01-30T09:01:40;37.17;;;14.30;;
56039;SDS011;43937;41.366;2.072;2024-01-30T09:04:05;32.03;;;14.30;;
56039;SDS011;43937;41.366;2.072;2024-01-30T09:06:31;31.55;;;14.27;;
56039;SDS011;43937;41.366;2.072;2024-01-30T09:08:57;35.75;;;13.43;;
56039;SDS011;43937;41.366;2.072;2024-01-30T09:11:23;28.02;;;13.85;;
56039;SDS011;43937;41.366;2.072;2024-01-30T09:13:48;28.33;;;13.18;;
56039;SDS011;43937;41.366;2.072;2024-01-30T09:16:14;72.60;;;22.70;;
56039;SDS011;43937;41.366;2.072;2024-01-30T09:18:41;29.17;;;13.48;;
56039;SDS011;43937;41.366;2.072;2024-01-30T09:21:06;34.92;;;13.32;;
56039;SDS011;43937;41.366;2.072;2024-01-30T09:23:32;29.73;;;13.80;;
56039;SDS011;43937;41.366;2.072;2024-01-30T09:25:58;27.30;;;12.35;;
56039;SDS011;43937;41.366;2.072;2024-01-30T09:28:24;32.58;;;12.77;;
56039;SDS011;43937;41.366;2.072;2024-01-30T09:30:49;29.13;;;12.20;;
56039;SDS011;43937;41.366;2.072;2024-01-30T09:33:15;28.03;;;11.87;;
56039;SDS011;43937;41.366;2.072;2024-01-30T09:35:40;30.35;;;11.40;;
56039;SDS011;43937;41.366;2.072;2024-01-30T09:38:06;29.80;;;11.30;;
56039;SDS011;43937;41.366;2.072;2024-01-30T09:40:31;27.60;;;11.23;;
56039;SDS011;43937;41.366;2.072;2024-01-30T09:42:57;29.33;;;11.50;;
56039;SDS011;43937;41.366;2.072;2024-01-30T09:45:25;24.85;;;11.10;;
56039;SDS011;43937;41.366;2.072;2024-01-30T09:47:51;32.17;;;12.00;;
56039;SDS011;43937;41.366;2.072;2024-01-30T09:50:17;30.30;;;12.23;;
56039;SDS011;43937;41.366;2.072;2024-01-30T09:52:46;29.85;;;13.90;;
56039;SDS011;43937;41.366;2.072;2024-01-30T09:55:13;30.85;;;13.43;;
56039;SDS011;43937;41.366;2.072;2024-01-30T09:57:38;32.72;;;13.35;;
56039;SDS011;43937;41.366;2.072;2024-01-30T10:00:05;33.85;;;13.80;;
56039;SDS011;43937;41.366;2.072;2024-01-30T10:02:34;27.15;;;12.82;;
56039;SDS011;43937;41.366;2.072;2024-01-30T10:05:00;25.35;;;10.93;;
56039;SDS011;43937;41.366;2.072;2024-01-30T10:07:26;27.03;;;11.00;;
56039;SDS011;43937;41.366;2.072;2024-01-30T10:09:52;25.75;;;11.10;;
56039;SDS011;43937;41.366;2.072;2024-01-30T10:12:18;26.07;;;11.17;;
56039;SDS011;43937;41.366;2.072;2024-01-30T10:14:43;23.90;;;11.70;;
56039;SDS011;43937;41.366;2.072;2024-01-30T10:17:09;30.05;;;11.50;;
56039;SDS011;43937;41.366;2.072;2024-01-30T10:19:37;25.25;;;10.82;;
56039;SDS011;43937;41.366;2.072;2024-01-30T10:22:04;26.58;;;10.10;;
56039;SDS011;43937;41.366;2.072;2024-01-30T10:24:30;24.60;;;9.77;;
56039;SDS011;43937;41.366;2.072;2024-01-30T10:26:56;29.73;;;10.63;;
56039;SDS011;43937;41.366;2.072;2024-01-30T10:29:22;25.27;;;9.53;;
56039;SDS011;43937;41.366;2.072;2024-01-30T10:31:59;24.30;;;9.13;;
56039;SDS011;43937;41.366;2.072;2024-01-30T10:34:25;22.83;;;8.48;;
56039;SDS011;43937;41.366;2.072;2024-01-30T10:36:52;21.93;;;8.03;;
56039;SDS011;43937;41.366;2.072;2024-01-30T10:39:30;21.95;;;7.68;;
56039;SDS011;43937;41.366;2.072;2024-01-30T10:41:59;77.70;;;43.57;;
56039;SDS011;43937;41.366;2.072;2024-01-30T10:44:30;15.18;;;5.43;;
56039;SDS011;43937;41.366;2.072;2024-01-30T10:47:29;16.10;;;6.05;;
56039;SDS011;43937;41.366;2.072;2024-01-30T10:49:55;22.73;;;6.05;;
56039;SDS011;43937;41.366;2.072;2024-01-30T10:52:25;19.27;;;5.80;;
56039;SDS011;43937;41.366;2.072;2024-01-30T10:54:53;16.88;;;6.10;;
56039;SDS011;43937;41.366;2.072;2024-01-30T10:57:20;15.93;;;4.88;;
56039;SDS011;43937;41.366;2.072;2024-01-30T11:00:00;14.05;;;4.95;;
56039;SDS011;43937;41.366;2.072;2024-01-30T11:02:44;12.48;;;3.67;;
56039;SDS011;43937;41.366;2.072;2024-01-30T11:05:11;13.98;;;3.97;;
56039;SDS011;43937;41.366;2.072;2024-01-30T11:07:38;13.47;;;4.40;;
56039;SDS011;43937;41.366;2.072;2024-01-30T11:10:07;14.73;;;5.18;;
56039;SDS011;43937;41.366;2.072;2024-01-30T11:12:38;14.48;;;4.32;;
56039;SDS011;43937;41.366;2.072;2024-01-30T11:15:14;14.00;;;3.42;;
56039;SDS011;43937;41.366;2.072;2024-01-30T11:17:45;14.27;;;3.70;;
56039;SDS011;43937;41.366;2.072;2024-01-30T11:22:46;10.55;;;3.47;;
56039;SDS011;43937;41.366;2.072;2024-01-30T11:25:17;13.32;;;3.90;;
56039;SDS011;43937;41.366;2.072;2024-01-30T11:27:44;11.13;;;3.63;;
56039;SDS011;43937;41.366;2.072;2024-01-30T11:30:11;14.02;;;4.13;;
56039;SDS011;43937;41.366;2.072;2024-01-30T11:33:02;16.15;;;3.47;;
56039;SDS011;43937;41.366;2.072;2024-01-30T11:35:35;13.48;;;3.90;;
56039;SDS011;43937;41.366;2.072;2024-01-30T11:38:01;15.98;;;3.85;;
56039;SDS011;43937;41.366;2.072;2024-01-30T11:40:28;12.98;;;3.15;;
56039;SDS011;43937;41.366;2.072;2024-01-30T11:42:55;11.57;;;3.00;;
56039;SDS011;43937;41.366;2.072;2024-01-30T11:45:21;14.88;;;3.50;;
56039;SDS011;43937;41.366;2.072;2024-01-30T11:47:46;9.52;;;2.85;;
56039;SDS011;43937;41.366;2.072;2024-01-30T11:50:12;11.93;;;2.90;;
56039;SDS011;43937;41.366;2.072;2024-01-30T11:52:39;17.20;;;3.50;;
56039;SDS011;43937;41.366;2.072;2024-01-30T11:55:05;12.15;;;2.90;;
56039;SDS011;43937;41.366;2.072;2024-01-30T11:57:31;14.02;;;3.22;;
56039;SDS011;43937;41.366;2.072;2024-01-30T11:59:56;12.83;;;3.23;;
56039;SDS011;43937;41.366;2.072;2024-01-30T12:02:22;13.33;;;2.90;;
56039;SDS011;43937;41.366;2.072;2024-01-30T12:04:47;11.90;;;2.93;;
56039;SDS011;43937;41.366;2.072;2024-01-30T12:07:13;12.70;;;3.72;;
56039;SDS011;43937;41.366;2.072;2024-01-30T12:09:41;14.02;;;3.72;;
56039;SDS011;43937;41.366;2.072;2024-01-30T12:12:07;15.88;;;4.03;;
56039;SDS011;43937;41.366;2.072;2024-01-30T12:14:37;12.23;;;3.57;;
56039;SDS011;43937;41.366;2.072;2024-01-30T12:17:04;11.32;;;3.40;;
56039;SDS011;43937;41.366;2.072;2024-01-30T12:19:30;12.73;;;3.33;;
56039;SDS011;43937;41.366;2.072;2024-01-30T12:21:57;12.75;;;3.25;;
56039;SDS011;43937;41.366;2.072;2024-01-30T12:24:27;14.57;;;3.58;;
56039;SDS011;43937;41.366;2.072;2024-01-30T12:26:58;14.00;;;3.92;;
56039;SDS011;43937;41.366;2.072;2024-01-30T12:29:25;14.48;;;3.40;;
56039;SDS011;43937;41.366;2.072;2024-01-30T12:31:53;13.63;;;3.53;;
56039;SDS011;43937;41.366;2.072;2024-01-30T12:34:19;14.57;;;3.20;;
56039;SDS011;43937;41.366;2.072;2024-01-30T12:36:46;16.55;;;3.88;;
56039;SDS011;43937;41.366;2.072;2024-01-30T12:39:14;14.60;;;3.58;;
56039;SDS011;43937;41.366;2.072;2024-01-30T12:41:40;11.18;;;3.15;;
56039;SDS011;43937;41.366;2.072;2024-01-30T12:44:05;14.73;;;3.47;;
56039;SDS011;43937;41.366;2.072;2024-01-30T12:46:32;12.07;;;3.30;;
56039;SDS011;43937;41.366;2.072;2024-01-30T12:49:02;9.85;;;3.10;;
56039;SDS011;43937;41.366;2.072;2024-01-30T12:51:28;11.80;;;3.47;;
56039;SDS011;43937;41.366;2.072;2024-01-30T12:53:53;14.00;;;3.58;;
56039;SDS011;43937;41.366;2.072;2024-01-30T12:56:19;16.00;;;4.20;;
56039;SDS011;43937;41.366;2.072;2024-01-30T12:58:44;15.83;;;3.50;;
56039;SDS011;43937;41.366;2.072;2024-01-30T13:01:10;14.30;;;3.83;;
56039;SDS011;43937;41.366;2.072;2024-01-30T13:03:35;15.77;;;3.80;;
56039;SDS011;43937;41.366;2.072;2024-01-30T13:06:01;13.77;;;3.30;;
56039;SDS011;43937;41.366;2.072;2024-01-30T13:08:26;13.30;;;3.30;;
56039;SDS011;43937;41.366;2.072;2024-01-30T13:10:52;18.57;;;4.23;;
56039;SDS011;43937;41.366;2.072;2024-01-30T13:13:18;14.88;;;3.63;;
56039;SDS011;43937;41.366;2.072;2024-01-30T13:15:47;13.43;;;3.55;;
56039;SDS011;43937;41.366;2.072;2024-01-30T13:18:13;12.82;;;3.35;;
56039;SDS011;43937;41.366;2.072;2024-01-30T13:20:38;11.10;;;3.17;;
56039;SDS011;43937;41.366;2.072;2024-01-30T13:23:04;17.40;;;4.05;;
56039;SDS011;43937;41.366;2.072;2024-01-30T13:25:29;13.33;;;3.60;;
56039;SDS011;43937;41.366;2.072;2024-01-30T13:27:55;17.80;;;3.30;;
56039;SDS011;43937;41.366;2.072;2024-01-30T13:30:20;15.18;;;3.25;;
56039;SDS011;43937;41.366;2.072;2024-01-30T13:32:46;17.65;;;4.10;;
56039;SDS011;43937;41.366;2.072;2024-01-30T13:35:11;10.90;;;3.40;;
56039;SDS011;43937;41.366;2.072;2024-01-30T13:37:37;12.20;;;3.53;;
56039;SDS011;43937;41.366;2.072;2024-01-30T13:40:04;11.55;;;3.47;;
56039;SDS011;43937;41.366;2.072;2024-01-30T13:42:32;13.63;;;3.47;;
56039;SDS011;43937;41.366;2.072;2024-01-30T13:44:57;10.43;;;2.80;;
56039;SDS011;43937;41.366;2.072;2024-01-30T13:47:23;14.20;;;3.70;;
56039;SDS011;43937;41.366;2.072;2024-01-30T13:49:48;15.43;;;3.40;;
56039;SDS011;43937;41.366;2.072;2024-01-30T13:52:14;15.40;;;3.27;;
56039;SDS011;43937;41.366;2.072;2024-01-30T13:54:39;17.02;;;3.47;;
56039;SDS011;43937;41.366;2.072;2024-01-30T13:57:09;12.17;;;3.40;;
56039;SDS011;43937;41.366;2.072;2024-01-30T13:59:37;17.02;;;3.00;;
56039;SDS011;43937;41.366;2.072;2024-01-30T14:02:03;15.07;;;3.65;;
56039;SDS011;43937;41.366;2.072;2024-01-30T14:04:28;17.77;;;3.60;;
56039;SDS011;43937;41.366;2.072;2024-01-30T14:06:54;15.13;;;3.47;;
56039;SDS011;43937;41.366;2.072;2024-01-30T14:09:19;15.53;;;3.37;;
56039;SDS011;43937;41.366;2.072;2024-01-30T14:11:46;17.50;;;3.38;;
56039;SDS011;43937;41.366;2.072;2024-01-30T14:14:12;13.98;;;3.47;;
56039;SDS011;43937;41.366;2.072;2024-01-30T14:16:37;13.18;;;3.65;;
56039;SDS011;43937;41.366;2.072;2024-01-30T14:19:03;14.27;;;3.17;;
56039;SDS011;43937;41.366;2.072;2024-01-30T14:21:30;14.77;;;3.30;;
56039;SDS011;43937;41.366;2.072;2024-01-30T14:23:55;15.13;;;3.13;;
56039;SDS011;43937;41.366;2.072;2024-01-30T14:26:21;14.77;;;3.20;;